Time,TemperatureF,DewpointF,PressureIn,WindDirection,WindDirectionDegrees,WindSpeedMPH,WindSpeedGustMPH,Humidity,HourlyPrecipIn,Conditions,Clouds,dailyrainin,SoftwareType,DateUTC
2013-02-07 00:00:00,42.2,38.9,30.15,East,93,0.0,0.0,88,0.00,,---,0.00,VWS V14.01,2013-02-07 05:00:00,
2013-02-07 00:10:00,41.9,38.9,30.15,East,93,0.0,0.0,89,0.00,,---,0.00,VWS V14.01,2013-02-07 05:10:00,
2013-02-07 00:20:00,41.6,39.2,30.15,East,93,0.0,0.0,91,0.00,,---,0.00,VWS V14.01,2013-02-07 05:20:00,
2013-02-07 00:30:00,41.3,39.2,30.15,East,93,0.0,0.0,92,0.00,,---,0.00,VWS V14.01,2013-02-07 05:30:00,
2013-02-07 00:40:00,41.1,39.2,30.15,East,93,0.0,0.0,93,0.00,,---,0.00,VWS V14.01,2013-02-07 05:40:00,
2013-02-07 00:50:00,40.6,39.3,30.14,East,93,0.0,0.0,95,0.00,,---,0.00,VWS V14.01,2013-02-07 05:50:00,
2013-02-07 01:00:00,40.3,39.2,30.14,East,93,0.0,0.0,96,0.00,,---,0.00,VWS V14.01,2013-02-07 06:00:00,
2013-02-07 01:10:00,40.1,39.3,30.14,East,93,0.0,0.0,97,0.00,,---,0.00,VWS V14.01,2013-02-07 06:10:00,
2013-02-07 01:20:00,39.8,39.3,30.14,East,93,0.0,0.0,98,0.00,,---,0.00,VWS V14.01,2013-02-07 06:20:00,
2013-02-07 01:30:00,39.5,39.2,30.14,East,93,0.0,0.0,99,0.00,,---,0.00,VWS V14.01,2013-02-07 06:30:00,
2013-02-07 01:40:00,39.1,39.1,30.14,East,93,0.0,0.0,100,0.00,,---,0.00,VWS V14.01,2013-02-07 06:40:00,
2013-02-07 01:50:00,38.8,38.8,30.14,East,93,0.0,0.0,100,0.00,,---,0.00,VWS V14.01,2013-02-07 06:50:00,
2013-02-07 02:00:00,38.5,38.5,30.14,East,93,0.0,0.0,100,0.00,,---,0.00,VWS V14.01,2013-02-07 07:00:00,
2013-02-07 02:10:00,38.2,38.2,30.14,East,93,0.0,0.0,100,0.00,,---,0.00,VWS V14.01,2013-02-07 07:10:00,
2013-02-07 02:20:00,38.0,38.0,30.13,East,93,0.0,0.0,100,0.00,,---,0.00,VWS V14.01,2013-02-07 07:20:00,
2013-02-07 02:30:00,38.0,38.0,30.13,East,93,0.0,0.0,100,0.00,,---,0.00,VWS V14.01,2013-02-07 07:30:00,
2013-02-07 02:40:00,37.9,37.9,30.13,East,93,0.0,0.0,100,0.00,,---,0.00,VWS V14.01,2013-02-07 07:40:00,
2013-02-07 02:50:00,37.9,37.9,30.13,East,93,0.0,0.0,100,0.00,,---,0.00,VWS V14.01,2013-02-07 07:50:00,
2013-02-07 03:00:00,37.8,37.8,30.13,East,93,0.0,0.0,100,0.00,,---,0.00,VWS V14.01,2013-02-07 08:00:00,
2013-02-07 03:10:00,37.6,37.6,30.13,East,93,0.0,0.0,100,0.00,,---,0.00,VWS V14.01,2013-02-07 08:10:00,
2013-02-07 03:20:00,37.5,37.5,30.13,East,93,0.0,0.0,100,0.00,,---,0.00,VWS V14.01,2013-02-07 08:20:00,
2013-02-07 03:30:00,37.2,37.2,30.13,East,93,0.0,0.0,100,0.00,,---,0.00,VWS V14.01,2013-02-07 08:30:00,
2013-02-07 03:40:00,37.0,37.0,30.13,East,93,0.0,0.0,100,0.00,,---,0.00,VWS V14.01,2013-02-07 08:40:00,
2013-02-07 03:50:00,37.0,37.0,30.14,East,93,0.0,0.0,100,0.00,,---,0.00,VWS V14.01,2013-02-07 08:50:00,
2013-02-07 04:00:00,36.9,36.9,30.14,East,93,0.0,0.0,100,0.00,,---,0.00,VWS V14.01,2013-02-07 09:00:00,
2013-02-07 04:10:00,36.8,36.8,30.14,East,93,0.0,0.0,100,0.00,,---,0.00,VWS V14.01,2013-02-07 09:10:00,
2013-02-07 04:20:00,36.6,36.6,30.14,East,93,0.0,0.0,100,0.00,,---,0.00,VWS V14.01,2013-02-07 09:20:00,
2013-02-07 04:30:00,36.6,36.6,30.14,East,93,0.0,0.0,100,0.00,,---,0.00,VWS V14.01,2013-02-07 09:30:00,
2013-02-07 04:40:00,36.5,36.5,30.14,East,93,0.0,0.0,100,0.00,,---,0.00,VWS V14.01,2013-02-07 09:40:00,
2013-02-07 04:50:00,36.5,36.5,30.14,East,93,0.0,0.0,100,0.00,,---,0.00,VWS V14.01,2013-02-07 09:50:00,
2013-02-07 05:00:00,36.3,36.3,30.15,East,93,0.0,0.0,100,0.00,,---,0.00,VWS V14.01,2013-02-07 10:00:00,
2013-02-07 05:10:00,36.2,36.2,30.15,East,93,0.0,0.0,100,0.00,,---,0.00,VWS V14.01,2013-02-07 10:10:00,
2013-02-07 05:20:00,36.0,36.0,30.15,East,93,0.0,0.0,100,0.00,,---,0.00,VWS V14.01,2013-02-07 10:20:00,
2013-02-07 05:30:00,35.9,35.9,30.15,East,93,0.0,0.0,100,0.00,,---,0.00,VWS V14.01,2013-02-07 10:30:00,
2013-02-07 05:40:00,35.9,35.9,30.15,NNW,337,0.0,3.0,100,0.00,,---,0.00,VWS V14.01,2013-02-07 10:40:00,
2013-02-07 05:50:00,35.9,35.9,30.16,NNW,337,0.0,0.0,100,0.00,,---,0.00,VWS V14.01,2013-02-07 10:50:00,
2013-02-07 06:00:00,35.9,35.9,30.16,NNW,337,0.0,0.0,100,0.00,,---,0.00,VWS V14.01,2013-02-07 11:00:00,
2013-02-07 06:10:00,35.9,35.9,30.16,NNW,337,0.0,0.0,100,0.00,,---,0.00,VWS V14.01,2013-02-07 11:10:00,
2013-02-07 06:20:00,35.9,35.9,30.17,NNW,337,0.0,0.0,100,0.00,,---,0.00,VWS V14.01,2013-02-07 11:20:00,
2013-02-07 06:30:00,35.9,35.9,30.17,NNW,337,0.0,0.0,100,0.00,,---,0.00,VWS V14.01,2013-02-07 11:30:00,
2013-02-07 06:40:00,35.9,35.9,30.17,NNW,337,0.0,0.0,100,0.00,,---,0.00,VWS V14.01,2013-02-07 11:40:00,
2013-02-07 06:50:00,35.9,35.9,30.17,NNW,337,0.0,0.0,100,0.00,,---,0.00,VWS V14.01,2013-02-07 11:50:00,
2013-02-07 07:00:00,35.8,35.8,30.17,NNW,337,0.0,0.0,100,0.00,,---,0.00,VWS V14.01,2013-02-07 12:00:00,
2013-02-07 07:10:00,35.5,35.5,30.17,NNW,337,0.0,0.0,100,0.00,,---,0.00,VWS V14.01,2013-02-07 12:10:00,
2013-02-07 07:20:00,35.5,35.5,30.18,NNW,337,0.0,0.0,100,0.00,,---,0.00,VWS V14.01,2013-02-07 12:20:00,
2013-02-07 07:30:00,35.5,35.5,30.18,NNW,337,0.0,0.0,100,0.00,,---,0.00,VWS V14.01,2013-02-07 12:30:00,
2013-02-07 07:40:00,35.5,35.5,30.18,NW,322,0.0,2.0,100,0.00,,---,0.00,VWS V14.01,2013-02-07 12:40:00,
2013-02-07 07:50:00,35.8,35.8,30.19,NW,322,0.0,1.0,100,0.00,,---,0.00,VWS V14.01,2013-02-07 12:50:00,
2013-02-07 08:00:00,35.9,35.9,30.19,NW,322,0.0,3.0,100,0.00,,---,0.00,VWS V14.01,2013-02-07 13:00:00,
2013-02-07 08:10:00,36.2,36.2,30.19,NNW,336,0.0,0.0,100,0.00,,---,0.00,VWS V14.01,2013-02-07 13:10:00,
2013-02-07 08:20:00,36.5,36.5,30.19,NNW,336,0.0,0.0,100,0.00,,---,0.00,VWS V14.01,2013-02-07 13:20:00,
2013-02-07 08:30:00,36.6,36.6,30.19,NNW,336,0.0,0.0,100,0.00,,---,0.00,VWS V14.01,2013-02-07 13:30:00,
2013-02-07 08:40:00,37.0,37.0,30.19,NNW,336,0.0,3.0,100,0.00,,---,0.00,VWS V14.01,2013-02-07 13:40:00,
2013-02-07 08:50:00,37.3,37.3,30.19,NNW,336,0.0,0.0,100,0.00,,---,0.00,VWS V14.01,2013-02-07 13:50:00,
2013-02-07 09:00:00,37.8,37.8,30.19,NNW,337,0.0,5.0,100,0.00,,---,0.00,VWS V14.01,2013-02-07 14:00:00,
2013-02-07 09:10:00,38.0,38.0,30.19,North,349,0.0,4.0,100,0.00,,---,0.00,VWS V14.01,2013-02-07 14:10:00,
2013-02-07 09:20:00,38.8,38.8,30.19,North,354,0.0,3.0,100,0.00,,---,0.00,VWS V14.01,2013-02-07 14:20:00,
2013-02-07 09:30:00,39.1,39.1,30.18,NE,37,0.0,3.0,100,0.00,,---,0.00,VWS V14.01,2013-02-07 14:30:00,
2013-02-07 09:40:00,39.2,38.9,30.18,NNW,343,0.0,3.0,99,0.00,,---,0.00,VWS V14.01,2013-02-07 14:40:00,
2013-02-07 09:50:00,39.2,38.7,30.17,NNW,346,0.0,6.0,98,0.00,,---,0.00,VWS V14.01,2013-02-07 14:50:00,
2013-02-07 10:00:00,39.5,38.7,30.18,NNW,339,0.0,6.0,97,0.00,,---,0.00,VWS V14.01,2013-02-07 15:00:00,
2013-02-07 10:10:00,39.9,39.1,30.18,NNW,344,0.0,0.0,97,0.00,,---,0.00,VWS V14.01,2013-02-07 15:10:00,
2013-02-07 10:20:00,40.5,39.2,30.18,North,349,0.0,2.0,95,0.00,,---,0.00,VWS V14.01,2013-02-07 15:20:00,
2013-02-07 10:30:00,40.8,39.2,30.18,North,0,0.0,2.0,94,0.00,,---,0.00,VWS V14.01,2013-02-07 15:30:00,
2013-02-07 10:40:00,41.5,39.3,30.18,North,359,0.0,0.0,92,0.00,,---,0.00,VWS V14.01,2013-02-07 15:40:00,
2013-02-07 10:50:00,41.6,39.5,30.17,NNE,17,0.0,5.0,92,0.00,,---,0.00,VWS V14.01,2013-02-07 15:50:00,
2013-02-07 11:00:00,42.1,39.7,30.17,NNE,17,0.0,3.0,91,0.00,,---,0.00,VWS V14.01,2013-02-07 16:00:00,
2013-02-07 11:10:00,42.3,39.9,30.17,North,0,0.0,3.0,91,0.00,,---,0.00,VWS V14.01,2013-02-07 16:10:00,
2013-02-07 11:20:00,42.9,39.9,30.16,NNW,344,0.0,3.0,89,0.00,,---,0.00,VWS V14.01,2013-02-07 16:20:00,
2013-02-07 11:30:00,43.2,39.9,30.15,North,8,0.0,7.0,88,0.00,,---,0.00,VWS V14.01,2013-02-07 16:30:00,
2013-02-07 11:40:00,43.9,40.3,30.15,NNE,27,0.0,5.0,87,0.00,,---,0.00,VWS V14.01,2013-02-07 16:40:00,
2013-02-07 11:50:00,44.3,41.0,30.14,North,353,0.0,3.0,88,0.00,,---,0.00,VWS V14.01,2013-02-07 16:50:00,
2013-02-07 12:00:00,44.8,40.9,30.13,North,0,0.0,3.0,86,0.00,,---,0.00,VWS V14.01,2013-02-07 17:00:00,
2013-02-07 12:10:00,45.2,41.3,30.13,NNW,344,0.0,3.0,86,0.00,,---,0.00,VWS V14.01,2013-02-07 17:10:00,
2013-02-07 12:20:00,45.4,41.5,30.12,ENE,62,6.0,6.0,86,0.00,,---,0.00,VWS V14.01,2013-02-07 17:20:00,
2013-02-07 12:30:00,45.7,41.5,30.13,North,0,0.0,6.0,85,0.00,,---,0.00,VWS V14.01,2013-02-07 17:30:00,
2013-02-07 12:40:00,46.1,41.8,30.13,ENE,61,0.0,3.0,85,0.00,,---,0.00,VWS V14.01,2013-02-07 17:40:00,
2013-02-07 12:50:00,46.4,42.1,30.11,North,0,0.0,2.0,85,0.00,,---,0.00,VWS V14.01,2013-02-07 17:50:00,
2013-02-07 13:00:00,46.8,42.2,30.10,North,0,0.0,6.0,84,0.00,,---,0.00,VWS V14.01,2013-02-07 18:00:00,
2013-02-07 13:10:00,47.3,42.4,30.10,NNE,14,3.0,3.0,83,0.00,,---,0.00,VWS V14.01,2013-02-07 18:10:00,
2013-02-07 13:20:00,47.6,42.7,30.09,WNW,295,1.0,4.0,83,0.00,,---,0.00,VWS V14.01,2013-02-07 18:20:00,
2013-02-07 13:30:00,48.2,43.0,30.09,NNW,344,0.0,4.0,82,0.00,,---,0.00,VWS V14.01,2013-02-07 18:30:00,
2013-02-07 13:40:00,48.2,43.0,30.09,NNE,27,0.0,5.0,82,0.00,,---,0.00,VWS V14.01,2013-02-07 18:40:00,
2013-02-07 13:50:00,48.3,43.1,30.08,NE,40,0.0,7.0,82,0.00,,---,0.00,VWS V14.01,2013-02-07 18:50:00,
2013-02-07 14:00:00,48.0,43.4,30.07,NE,34,0.0,7.0,84,0.00,,---,0.00,VWS V14.01,2013-02-07 19:00:00,
2013-02-07 14:10:00,48.5,43.6,30.07,North,0,0.0,3.0,83,0.00,,---,0.00,VWS V14.01,2013-02-07 19:10:00,
2013-02-07 14:20:00,48.6,43.4,30.07,North,4,0.0,5.0,82,0.00,,---,0.00,VWS V14.01,2013-02-07 19:20:00,
2013-02-07 14:30:00,48.8,43.9,30.07,NNE,21,0.0,3.0,83,0.00,,---,0.00,VWS V14.01,2013-02-07 19:30:00,
2013-02-07 14:40:00,48.9,44.0,30.07,North,10,0.0,5.0,83,0.00,,---,0.00,VWS V14.01,2013-02-07 19:40:00,
2013-02-07 14:50:00,49.1,43.8,30.07,North,7,0.0,1.0,82,0.00,,---,0.00,VWS V14.01,2013-02-07 19:50:00,
2013-02-07 15:00:00,49.2,44.0,30.07,NNW,346,0.0,2.0,82,0.00,,---,0.00,VWS V14.01,2013-02-07 20:00:00,
2013-02-07 15:10:00,49.2,44.0,30.07,North,0,0.0,2.0,82,0.00,,---,0.00,VWS V14.01,2013-02-07 20:10:00,
2013-02-07 15:20:00,48.9,44.0,30.06,North,357,0.0,1.0,83,0.00,,---,0.00,VWS V14.01,2013-02-07 20:20:00,
2013-02-07 15:30:00,48.8,44.2,30.05,North,357,0.0,0.0,84,0.00,,---,0.00,VWS V14.01,2013-02-07 20:30:00,
2013-02-07 15:40:00,48.8,44.5,30.05,North,359,0.0,5.0,85,0.00,,---,0.00,VWS V14.01,2013-02-07 20:40:00,
2013-02-07 15:50:00,48.6,44.3,30.05,North,359,0.0,0.0,85,0.00,,---,0.00,VWS V14.01,2013-02-07 20:50:00,
2013-02-07 16:00:00,48.6,44.3,30.05,North,359,0.0,1.0,85,0.00,,---,0.00,VWS V14.01,2013-02-07 21:00:00,
2013-02-07 16:10:00,48.5,44.2,30.05,North,0,0.0,0.0,85,0.00,,---,0.00,VWS V14.01,2013-02-07 21:10:00,
2013-02-07 16:20:00,48.3,44.0,30.05,North,0,0.0,0.0,85,0.00,,---,0.00,VWS V14.01,2013-02-07 21:20:00,
2013-02-07 16:30:00,48.2,44.2,30.04,North,0,1.0,2.0,86,0.00,,---,0.00,VWS V14.01,2013-02-07 21:30:00,
2013-02-07 16:40:00,48.0,44.0,30.04,North,0,0.0,1.0,86,0.00,,---,0.00,VWS V14.01,2013-02-07 21:40:00,
2013-02-07 16:50:00,48.0,44.3,30.03,North,0,0.0,0.0,87,0.00,,---,0.00,VWS V14.01,2013-02-07 21:50:00,
2013-02-07 17:00:00,47.7,44.0,30.03,NW,320,0.0,0.0,87,0.00,,---,0.00,VWS V14.01,2013-02-07 22:00:00,
2013-02-07 17:10:00,47.6,43.9,30.03,NW,320,0.0,0.0,87,0.00,,---,0.00,VWS V14.01,2013-02-07 22:10:00,
2013-02-07 17:20:00,47.6,43.9,30.03,NW,320,0.0,2.0,87,0.00,,---,0.00,VWS V14.01,2013-02-07 22:20:00,
2013-02-07 17:30:00,47.4,44.0,30.04,NW,320,0.0,2.0,88,0.00,,---,0.00,VWS V14.01,2013-02-07 22:30:00,
2013-02-07 17:40:00,47.4,44.3,30.04,NE,34,2.0,2.0,89,0.00,,---,0.00,VWS V14.01,2013-02-07 22:40:00,
2013-02-07 17:50:00,47.1,44.6,30.03,NNE,23,0.0,2.0,91,0.00,,---,0.00,VWS V14.01,2013-02-07 22:50:00,
2013-02-07 18:00:00,46.7,45.1,30.02,North,0,0.0,0.0,94,0.00,,---,0.00,VWS V14.01,2013-02-07 23:00:00,
2013-02-07 18:10:00,46.4,45.0,30.02,North,349,0.0,3.0,95,0.00,,---,0.00,VWS V14.01,2013-02-07 23:10:00,
2013-02-07 18:20:00,46.2,45.4,30.02,North,349,0.0,0.0,97,0.00,,---,0.00,VWS V14.01,2013-02-07 23:20:00,
2013-02-07 18:30:00,46.0,45.7,30.01,West,281,0.0,0.0,99,0.00,,---,0.00,VWS V14.01,2013-02-07 23:30:00,
2013-02-07 18:40:00,45.8,45.8,30.01,West,281,0.0,0.0,100,0.00,,---,0.00,VWS V14.01,2013-02-07 23:40:00,
2013-02-07 18:50:00,45.7,45.7,30.01,West,281,0.0,0.0,100,0.00,,---,0.00,VWS V14.01,2013-02-07 23:50:00,
2013-02-07 19:00:00,45.5,45.5,30.01,NNW,340,2.0,2.0,100,0.01,,---,0.01,VWS V14.01,2013-02-08 00:00:00,
2013-02-07 19:10:00,45.2,45.2,30.01,NNW,340,0.0,2.0,100,0.02,,---,0.02,VWS V14.01,2013-02-08 00:10:00,
2013-02-07 19:20:00,44.9,44.9,30.00,NNW,340,0.0,2.0,100,0.02,,---,0.02,VWS V14.01,2013-02-08 00:20:00,
2013-02-07 19:30:00,44.6,44.6,29.99,North,0,0.0,5.0,100,0.03,,---,0.03,VWS V14.01,2013-02-08 00:30:00,
2013-02-07 19:40:00,44.5,44.5,29.99,North,354,0.0,5.0,100,0.04,,---,0.04,VWS V14.01,2013-02-08 00:40:00,
2013-02-07 19:50:00,44.1,44.1,29.99,North,0,0.0,6.0,100,0.05,,---,0.05,VWS V14.01,2013-02-08 00:50:00,
2013-02-07 20:00:00,43.8,43.8,29.98,North,3,0.0,6.0,100,0.05,,---,0.05,VWS V14.01,2013-02-08 01:00:00,
2013-02-07 20:10:00,43.5,43.5,29.98,NNW,347,0.0,6.0,100,0.05,,---,0.06,VWS V14.01,2013-02-08 01:10:00,
2013-02-07 20:20:00,43.3,43.3,29.97,NNE,14,3.0,4.0,100,0.04,,---,0.06,VWS V14.01,2013-02-08 01:20:00,
2013-02-07 20:30:00,43.1,43.1,29.96,NNE,21,0.0,6.0,100,0.05,,---,0.07,VWS V14.01,2013-02-08 01:30:00,
2013-02-07 20:40:00,42.9,42.9,29.96,WNW,288,0.0,5.0,100,0.04,,---,0.07,VWS V14.01,2013-02-08 01:40:00,
2013-02-07 20:50:00,42.8,42.8,29.94,South,184,0.0,7.0,100,0.04,,---,0.08,VWS V14.01,2013-02-08 01:50:00,
2013-02-07 21:00:00,42.6,42.6,29.94,North,0,0.0,6.0,100,0.03,,---,0.08,VWS V14.01,2013-02-08 02:00:00,
2013-02-07 21:10:00,42.6,42.6,29.94,North,0,0.0,7.0,100,0.04,,---,0.09,VWS V14.01,2013-02-08 02:10:00,
2013-02-07 21:20:00,42.6,42.6,29.93,North,8,0.0,5.0,100,0.04,,---,0.10,VWS V14.01,2013-02-08 02:20:00,
2013-02-07 21:30:00,42.6,42.6,29.93,NE,48,0.0,5.0,100,0.05,,---,0.11,VWS V14.01,2013-02-08 02:30:00,
2013-02-07 21:40:00,42.6,42.6,29.93,NNE,18,0.0,6.0,100,0.04,,---,0.11,VWS V14.01,2013-02-08 02:40:00,
2013-02-07 21:50:00,42.6,42.6,29.94,NNE,18,0.0,0.0,100,0.05,,---,0.12,VWS V14.01,2013-02-08 02:50:00,
2013-02-07 22:00:00,42.6,42.6,29.93,NNE,17,0.0,0.0,100,0.06,,---,0.14,VWS V14.01,2013-02-08 03:00:00,
2013-02-07 22:10:00,42.6,42.6,29.93,North,352,0.0,3.0,100,0.07,,---,0.15,VWS V14.01,2013-02-08 03:10:00,
2013-02-07 22:20:00,42.6,42.6,29.93,North,352,0.0,0.0,100,0.08,,---,0.17,VWS V14.01,2013-02-08 03:20:00,
2013-02-07 22:30:00,42.6,42.6,29.91,North,352,0.0,0.0,100,0.08,,---,0.18,VWS V14.01,2013-02-08 03:30:00,
2013-02-07 22:40:00,42.6,42.6,29.91,West,274,2.0,3.0,100,0.08,,---,0.19,VWS V14.01,2013-02-08 03:40:00,
2013-02-07 22:50:00,42.6,42.6,29.90,West,280,0.0,2.0,100,0.08,,---,0.19,VWS V14.01,2013-02-08 03:50:00,
2013-02-07 23:00:00,42.6,42.6,29.88,North,1,0.0,4.0,100,0.08,,---,0.20,VWS V14.01,2013-02-08 04:00:00,
2013-02-07 23:10:00,42.6,42.6,29.88,NW,312,0.0,4.0,100,0.06,,---,0.20,VWS V14.01,2013-02-08 04:10:00,
2013-02-07 23:20:00,42.8,42.8,29.87,NW,312,0.0,3.0,100,0.06,,---,0.21,VWS V14.01,2013-02-08 04:20:00,
2013-02-07 23:30:00,42.8,42.8,29.86,North,0,0.0,5.0,100,0.04,,---,0.21,VWS V14.01,2013-02-08 04:30:00,
2013-02-07 23:40:00,42.9,42.9,29.86,NNW,337,0.0,3.0,100,0.05,,---,0.23,VWS V14.01,2013-02-08 04:40:00,
2013-02-07 23:50:00,42.9,42.9,29.85,North,0,0.0,3.0,100,0.05,,---,0.24,VWS V14.01,2013-02-08 04:50:00,